sensor_id;sensor_type;location;lat;lon;timestamp;pressure;altitude;pressure_sealevel;temperature;humidity
64368;BME280;50692;53.314;-6.300;2023-02-04T00:00:29;103014.75;;;10.54;85.30
64368;BME280;50692;53.314;-6.300;2023-02-04T00:03:15;103012.94;;;10.56;84.56
64368;BME280;50692;53.314;-6.300;2023-02-04T00:06:01;103021.78;;;10.55;83.15
64368;BME280;50692;53.314;-6.300;2023-02-04T00:08:47;103024.34;;;10.60;82.02
64368;BME280;50692;53.314;-6.300;2023-02-04T00:11:33;103026.06;;;10.63;81.28
64368;BME280;50692;53.314;-6.300;2023-02-04T00:14:19;103019.00;;;10.63;80.70
64368;BME280;50692;53.314;-6.300;2023-02-04T00:17:05;103027.75;;;10.67;80.45
64368;BME280;50692;53.314;-6.300;2023-02-04T00:19:56;103011.25;;;10.54;80.32
64368;BME280;50692;53.314;-6.300;2023-02-04T00:22:41;103025.16;;;10.64;80.06
64368;BME280;50692;53.314;-6.300;2023-02-04T00:25:27;103018.94;;;10.68;79.95
64368;BME280;50692;53.314;-6.300;2023-02-04T00:28:13;103016.31;;;10.66;80.29
64368;BME280;50692;53.314;-6.300;2023-02-04T00:30:59;103020.69;;;10.67;80.56
64368;BME280;50692;53.314;-6.300;2023-02-04T00:33:45;103021.63;;;10.65;80.57
64368;BME280;50692;53.314;-6.300;2023-02-04T00:36:30;103019.00;;;10.65;80.86
64368;BME280;50692;53.314;-6.300;2023-02-04T00:39:16;103018.88;;;10.71;80.75
64368;BME280;50692;53.314;-6.300;2023-02-04T00:42:02;103029.22;;;10.86;79.80
64368;BME280;50692;53.314;-6.300;2023-02-04T00:44:50;103024.63;;;10.96;79.15
64368;BME280;50692;53.314;-6.300;2023-02-04T00:47:35;103021.09;;;10.97;79.12
64368;BME280;50692;53.314;-6.300;2023-02-04T00:50:22;103021.09;;;10.97;79.04
64368;BME280;50692;53.314;-6.300;2023-02-04T00:53:08;103016.75;;;10.91;79.21
64368;BME280;50692;53.314;-6.300;2023-02-04T00:55:54;103018.59;;;10.89;78.76
64368;BME280;50692;53.314;-6.300;2023-02-04T00:58:40;103017.69;;;10.90;78.07
64368;BME280;50692;53.314;-6.300;2023-02-04T01:01:25;103008.91;;;10.87;77.78
64368;BME280;50692;53.314;-6.300;2023-02-04T01:04:11;103013.34;;;10.86;77.47
64368;BME280;50692;53.314;-6.300;2023-02-04T01:06:57;103021.31;;;10.83;76.66
64368;BME280;50692;53.314;-6.300;2023-02-04T01:09:43;103023.91;;;10.86;76.41
64368;BME280;50692;53.314;-6.300;2023-02-04T01:12:29;103023.91;;;10.86;76.41
64368;BME280;50692;53.314;-6.300;2023-02-04T01:15:15;103022.16;;;10.85;76.17
64368;BME280;50692;53.314;-6.300;2023-02-04T01:18:00;103021.34;;;10.81;75.88
64368;BME280;50692;53.314;-6.300;2023-02-04T01:20:47;103024.78;;;10.87;75.57
64368;BME280;50692;53.314;-6.300;2023-02-04T01:23:32;103023.91;;;10.86;75.31
64368;BME280;50692;53.314;-6.300;2023-02-04T01:26:18;103022.22;;;10.82;75.04
64368;BME280;50692;53.314;-6.300;2023-02-04T01:29:04;103024.97;;;10.76;74.90
64368;BME280;50692;53.314;-6.300;2023-02-04T01:31:50;103022.28;;;10.77;74.97
64368;BME280;50692;53.314;-6.300;2023-02-04T01:34:36;103028.50;;;10.76;74.97
64368;BME280;50692;53.314;-6.300;2023-02-04T01:37:22;103026.75;;;10.75;74.75
64368;BME280;50692;53.314;-6.300;2023-02-04T01:40:10;103017.09;;;10.73;74.52
64368;BME280;50692;53.314;-6.300;2023-02-04T01:42:56;103024.97;;;10.76;74.70
64368;BME280;50692;53.314;-6.300;2023-02-04T01:45:42;103026.84;;;10.69;75.08
64368;BME280;50692;53.314;-6.300;2023-02-04T01:48:29;103026.72;;;10.77;74.85
64368;BME280;50692;53.314;-6.300;2023-02-04T01:51:20;103030.28;;;10.76;74.68
64368;BME280;50692;53.314;-6.300;2023-02-04T01:54:10;103023.09;;;10.81;74.48
64368;BME280;50692;53.314;-6.300;2023-02-04T01:56:57;103033.69;;;10.83;74.41
64368;BME280;50692;53.314;-6.300;2023-02-04T01:59:47;103036.34;;;10.83;74.47
64368;BME280;50692;53.314;-6.300;2023-02-04T02:02:38;103029.28;;;10.81;74.48
64368;BME280;50692;53.314;-6.300;2023-02-04T02:05:31;103022.41;;;10.71;74.14
64368;BME280;50692;53.314;-6.300;2023-02-04T02:08:17;103040.94;;;10.71;74.15
64368;BME280;50692;53.314;-6.300;2023-02-04T02:11:03;103033.09;;;10.65;74.39
64368;BME280;50692;53.314;-6.300;2023-02-04T02:13:49;103040.13;;;10.68;74.23
64368;BME280;50692;53.314;-6.300;2023-02-04T02:16:35;103033.91;;;10.69;74.18
64368;BME280;50692;53.314;-6.300;2023-02-04T02:19:26;103030.34;;;10.70;74.19
64368;BME280;50692;53.314;-6.300;2023-02-04T02:25:32;103041.75;;;10.73;73.67
64368;BME280;50692;53.314;-6.300;2023-02-04T02:28:20;103034.75;;;10.71;73.84
64368;BME280;50692;53.314;-6.300;2023-02-04T02:31:07;103041.00;;;10.67;73.58
64368;BME280;50692;53.314;-6.300;2023-02-04T02:33:53;103039.16;;;10.70;73.39
64368;BME280;50692;53.314;-6.300;2023-02-04T02:36:39;103049.00;;;10.62;73.43
64368;BME280;50692;53.314;-6.300;2023-02-04T02:39:25;103054.25;;;10.64;73.44
64368;BME280;50692;53.314;-6.300;2023-02-04T02:42:14;103047.31;;;10.58;73.22
64368;BME280;50692;53.314;-6.300;2023-02-04T02:45:06;103052.53;;;10.63;73.21
64368;BME280;50692;53.314;-6.300;2023-02-04T02:47:55;103055.13;;;10.66;73.11
64368;BME280;50692;53.314;-6.300;2023-02-04T02:50:42;103042.84;;;10.62;73.11
64368;BME280;50692;53.314;-6.300;2023-02-04T02:53:28;103046.44;;;10.56;73.17
64368;BME280;50692;53.314;-6.300;2023-02-04T02:56:14;103050.88;;;10.57;73.18
64368;BME280;50692;53.314;-6.300;2023-02-04T02:59:16;103050.06;;;10.50;73.46
64368;BME280;50692;53.314;-6.300;2023-02-04T03:02:02;103048.22;;;10.55;73.32
64368;BME280;50692;53.314;-6.300;2023-02-04T03:04:53;103045.59;;;10.55;73.24
64368;BME280;50692;53.314;-6.300;2023-02-04T03:07:41;103046.50;;;10.53;73.43
64368;BME280;50692;53.314;-6.300;2023-02-04T03:10:27;103035.09;;;10.49;73.39
64368;BME280;50692;53.314;-6.300;2023-02-04T03:13:14;103035.09;;;10.51;73.14
64368;BME280;50692;53.314;-6.300;2023-02-04T03:16:00;103038.56;;;10.54;72.69
64368;BME280;50692;53.314;-6.300;2023-02-04T03:18:47;103030.66;;;10.51;72.37
64368;BME280;50692;53.314;-6.300;2023-02-04T03:21:34;103028.09;;;10.47;71.92
64368;BME280;50692;53.314;-6.300;2023-02-04T03:24:20;103029.88;;;10.46;71.24
64368;BME280;50692;53.314;-6.300;2023-02-04T03:27:06;103022.78;;;10.48;70.29
64368;BME280;50692;53.314;-6.300;2023-02-04T03:29:52;103022.81;;;10.47;69.94
64368;BME280;50692;53.314;-6.300;2023-02-04T03:32:37;103014.97;;;10.42;69.38
64368;BME280;50692;53.314;-6.300;2023-02-04T03:35:23;103021.06;;;10.44;68.99
64368;BME280;50692;53.314;-6.300;2023-02-04T03:38:09;103022.81;;;10.47;69.08
64368;BME280;50692;53.314;-6.300;2023-02-04T03:40:55;103028.06;;;10.48;68.87
64368;BME280;50692;53.314;-6.300;2023-02-04T03:43:41;103027.22;;;10.45;68.92
64368;BME280;50692;53.314;-6.300;2023-02-04T03:46:26;103025.50;;;10.44;69.17
64368;BME280;50692;53.314;-6.300;2023-02-04T03:49:13;103026.38;;;10.44;69.11
64368;BME280;50692;53.314;-6.300;2023-02-04T03:51:58;103024.66;;;10.40;69.63
64368;BME280;50692;53.314;-6.300;2023-02-04T03:54:45;103028.31;;;10.33;70.03
64368;BME280;50692;53.314;-6.300;2023-02-04T03:57:31;103030.03;;;10.34;70.25
64368;BME280;50692;53.314;-6.300;2023-02-04T04:00:17;103030.03;;;10.34;70.43
64368;BME280;50692;53.314;-6.300;2023-02-04T04:03:03;103026.50;;;10.37;70.35
64368;BME280;50692;53.314;-6.300;2023-02-04T04:05:48;103024.75;;;10.36;70.52
64368;BME280;50692;53.314;-6.300;2023-02-04T04:08:35;103022.06;;;10.39;70.16
64368;BME280;50692;53.314;-6.300;2023-02-04T04:11:21;103013.28;;;10.37;70.08
64368;BME280;50692;53.314;-6.300;2023-02-04T04:14:06;103020.34;;;10.36;69.75
64368;BME280;50692;53.314;-6.300;2023-02-04T04:16:52;103018.59;;;10.35;69.58
64368;BME280;50692;53.314;-6.300;2023-02-04T04:19:38;103001.94;;;10.28;69.37
64368;BME280;50692;53.314;-6.300;2023-02-04T04:22:24;103017.78;;;10.31;69.58
64368;BME280;50692;53.314;-6.300;2023-02-04T04:25:10;103017.72;;;10.33;69.78
64368;BME280;50692;53.314;-6.300;2023-02-04T04:27:56;103016.78;;;10.37;69.81
64368;BME280;50692;53.314;-6.300;2023-02-04T04:30:41;103012.41;;;10.35;69.80
64368;BME280;50692;53.314;-6.300;2023-02-04T04:33:27;103009.75;;;10.36;69.92
64368;BME280;50692;53.314;-6.300;2023-02-04T04:36:13;103008.06;;;10.32;70.10
64368;BME280;50692;53.314;-6.300;2023-02-04T04:38:59;103014.31;;;10.23;70.53
64368;BME280;50692;53.314;-6.300;2023-02-04T04:41:45;103012.56;;;10.25;70.28
64368;BME280;50692;53.314;-6.300;2023-02-04T04:44:30;103013.38;;;10.29;70.33
64368;BME280;50692;53.314;-6.300;2023-02-04T04:47:16;103019.50;;;10.32;70.04
64368;BME280;50692;53.314;-6.300;2023-02-04T04:50:02;103011.66;;;10.23;69.94
64368;BME280;50692;53.314;-6.300;2023-02-04T04:52:48;103018.72;;;10.26;70.02
64368;BME280;50692;53.314;-6.300;2023-02-04T04:55:34;103016.91;;;10.29;69.96
64368;BME280;50692;53.314;-6.300;2023-02-04T04:58:20;103016.03;;;10.27;69.74
64368;BME280;50692;53.314;-6.300;2023-02-04T05:01:05;103032.69;;;10.34;69.91
64368;BME280;50692;53.314;-6.300;2023-02-04T05:03:52;103024.84;;;10.29;70.28
64368;BME280;50692;53.314;-6.300;2023-02-04T05:06:37;103028.34;;;10.30;70.42
64368;BME280;50692;53.314;-6.300;2023-02-04T05:09:23;103022.22;;;10.26;70.55
64368;BME280;50692;53.314;-6.300;2023-02-04T05:12:09;103025.75;;;10.28;70.59
64368;BME280;50692;53.314;-6.300;2023-02-04T05:14:55;103032.81;;;10.28;70.75
64368;BME280;50692;53.314;-6.300;2023-02-04T05:17:41;103029.28;;;10.26;70.68
64368;BME280;50692;53.314;-6.300;2023-02-04T05:20:26;103026.63;;;10.27;70.29
64368;BME280;50692;53.314;-6.300;2023-02-04T05:23:12;103031.06;;;10.25;70.34
64368;BME280;50692;53.314;-6.300;2023-02-04T05:25:58;103043.38;;;10.28;70.22
64368;BME280;50692;53.314;-6.300;2023-02-04T05:28:44;103040.66;;;10.31;70.30
64368;BME280;50692;53.314;-6.300;2023-02-04T05:31:30;103035.53;;;10.19;70.42
64368;BME280;50692;53.314;-6.300;2023-02-04T05:34:16;103041.56;;;10.30;70.35
64368;BME280;50692;53.314;-6.300;2023-02-04T05:37:01;103046.03;;;10.25;70.40
64368;BME280;50692;53.314;-6.300;2023-02-04T05:39:47;103039.84;;;10.27;70.26
64368;BME280;50692;53.314;-6.300;2023-02-04T05:42:33;103040.75;;;10.26;70.26
64368;BME280;50692;53.314;-6.300;2023-02-04T05:45:19;103028.41;;;10.24;70.33
64368;BME280;50692;53.314;-6.300;2023-02-04T05:48:05;103028.44;;;10.22;70.32
64368;BME280;50692;53.314;-6.300;2023-02-04T05:50:51;103025.75;;;10.27;70.05
64368;BME280;50692;53.314;-6.300;2023-02-04T05:53:36;103017.91;;;10.21;70.19
64368;BME280;50692;53.314;-6.300;2023-02-04T05:56:22;103022.22;;;10.28;70.07
64368;BME280;50692;53.314;-6.300;2023-02-04T05:59:09;103022.16;;;10.32;69.90
64368;BME280;50692;53.314;-6.300;2023-02-04T06:01:55;103018.69;;;10.29;69.93
64368;BME280;50692;53.314;-6.300;2023-02-04T06:04:41;103022.22;;;10.28;69.83
64368;BME280;50692;53.314;-6.300;2023-02-04T06:07:27;103018.63;;;10.32;69.98
64368;BME280;50692;53.314;-6.300;2023-02-04T06:10:13;103010.72;;;10.30;69.95
64368;BME280;50692;53.314;-6.300;2023-02-04T06:12:58;103009.78;;;10.33;69.88
64368;BME280;50692;53.314;-6.300;2023-02-04T06:15:44;103007.97;;;10.37;70.03
64368;BME280;50692;53.314;-6.300;2023-02-04T06:18:30;103009.72;;;10.38;70.06
64368;BME280;50692;53.314;-6.300;2023-02-04T06:21:16;103012.44;;;10.33;70.05
64368;BME280;50692;53.314;-6.300;2023-02-04T06:24:02;103015.13;;;10.30;70.08
64368;BME280;50692;53.314;-6.300;2023-02-04T06:26:47;103006.38;;;10.25;70.33
64368;BME280;50692;53.314;-6.300;2023-02-04T06:29:33;103018.69;;;10.29;70.36
64368;BME280;50692;53.314;-6.300;2023-02-04T06:32:20;103022.16;;;10.31;70.21
64368;BME280;50692;53.314;-6.300;2023-02-04T06:35:06;103015.16;;;10.28;70.58
64368;BME280;50692;53.314;-6.300;2023-02-04T06:37:52;103012.50;;;10.30;70.58
64368;BME280;50692;53.314;-6.300;2023-02-04T06:40:39;103006.28;;;10.31;70.68
64368;BME280;50692;53.314;-6.300;2023-02-04T06:43:25;103010.69;;;10.32;70.80
64368;BME280;50692;53.314;-6.300;2023-02-04T06:46:12;103008.94;;;10.32;70.99
64368;BME280;50692;53.314;-6.300;2023-02-04T06:48:58;103015.13;;;10.30;71.03
64368;BME280;50692;53.314;-6.300;2023-02-04T06:51:43;103016.88;;;10.31;71.13
64368;BME280;50692;53.314;-6.300;2023-02-04T06:54:29;103018.56;;;10.37;71.01
64368;BME280;50692;53.314;-6.300;2023-02-04T06:57:15;103014.09;;;10.40;70.88
64368;BME280;50692;53.314;-6.300;2023-02-04T07:00:01;103014.91;;;10.44;70.83
64368;BME280;50692;53.314;-6.300;2023-02-04T07:02:47;103015.88;;;10.38;71.08
64368;BME280;50692;53.314;-6.300;2023-02-04T07:05:33;103015.03;;;10.36;71.24
64368;BME280;50692;53.314;-6.300;2023-02-04T07:08:19;103018.53;;;10.38;71.07
64368;BME280;50692;53.314;-6.300;2023-02-04T07:11:06;103015.00;;;10.39;71.05
64368;BME280;50692;53.314;-6.300;2023-02-04T07:13:52;103016.78;;;10.37;71.44
64368;BME280;50692;53.314;-6.300;2023-02-04T07:16:38;103015.00;;;10.39;71.27
64368;BME280;50692;53.314;-6.300;2023-02-04T07:19:24;103006.13;;;10.42;71.35
64368;BME280;50692;53.314;-6.300;2023-02-04T07:22:10;103008.72;;;10.45;71.22
64368;BME280;50692;53.314;-6.300;2023-02-04T07:24:56;103003.53;;;10.40;71.32
64368;BME280;50692;53.314;-6.300;2023-02-04T07:27:41;103002.72;;;10.35;71.62
64368;BME280;50692;53.314;-6.300;2023-02-04T07:30:28;102997.38;;;10.38;71.59
64368;BME280;50692;53.314;-6.300;2023-02-04T07:33:13;102998.28;;;10.39;71.63
64368;BME280;50692;53.314;-6.300;2023-02-04T07:35:59;103010.53;;;10.41;71.57
64368;BME280;50692;53.314;-6.300;2023-02-04T07:38:45;103000.91;;;10.39;71.38
64368;BME280;50692;53.314;-6.300;2023-02-04T07:41:31;102993.94;;;10.33;71.55
64368;BME280;50692;53.314;-6.300;2023-02-04T07:44:17;103012.28;;;10.44;71.46
64368;BME280;50692;53.314;-6.300;2023-02-04T07:47:03;103002.63;;;10.41;71.44
64368;BME280;50692;53.314;-6.300;2023-02-04T07:49:48;103003.47;;;10.43;71.28
64368;BME280;50692;53.314;-6.300;2023-02-04T07:52:35;103007.91;;;10.41;71.48
64368;BME280;50692;53.314;-6.300;2023-02-04T07:55:21;103007.03;;;10.41;71.58
64368;BME280;50692;53.314;-6.300;2023-02-04T07:58:07;103006.94;;;10.45;71.57
64368;BME280;50692;53.314;-6.300;2023-02-04T08:00:52;103006.13;;;10.43;71.71
64368;BME280;50692;53.314;-6.300;2023-02-04T08:03:38;103012.28;;;10.44;71.93
64368;BME280;50692;53.314;-6.300;2023-02-04T08:06:24;103010.59;;;10.38;72.17
64368;BME280;50692;53.314;-6.300;2023-02-04T08:09:10;103021.06;;;10.44;72.11
64368;BME280;50692;53.314;-6.300;2023-02-04T08:11:55;103023.75;;;10.41;72.49
64368;BME280;50692;53.314;-6.300;2023-02-04T08:14:41;103032.66;;;10.39;72.56
64368;BME280;50692;53.314;-6.300;2023-02-04T08:17:27;103044.03;;;10.41;72.68
64368;BME280;50692;53.314;-6.300;2023-02-04T08:20:13;103041.38;;;10.44;72.65
64368;BME280;50692;53.314;-6.300;2023-02-04T08:22:59;103039.63;;;10.41;73.14
64368;BME280;50692;53.314;-6.300;2023-02-04T08:25:45;103040.50;;;10.43;73.35
64368;BME280;50692;53.314;-6.300;2023-02-04T08:28:31;103028.34;;;10.31;74.37
64368;BME280;50692;53.314;-6.300;2023-02-04T08:31:17;103041.47;;;10.36;74.88
64368;BME280;50692;53.314;-6.300;2023-02-04T08:34:04;103033.47;;;10.41;74.89
64368;BME280;50692;53.314;-6.300;2023-02-04T08:36:50;103032.69;;;10.36;75.66
64368;BME280;50692;53.314;-6.300;2023-02-04T08:39:36;103037.09;;;10.33;76.18
64368;BME280;50692;53.314;-6.300;2023-02-04T08:42:23;103033.63;;;10.30;76.64
64368;BME280;50692;53.314;-6.300;2023-02-04T08:45:09;103048.53;;;10.36;76.89
64368;BME280;50692;53.314;-6.300;2023-02-04T08:47:54;103043.22;;;10.37;76.66
64368;BME280;50692;53.314;-6.300;2023-02-04T08:50:40;103058.13;;;10.41;76.68
64368;BME280;50692;53.314;-6.300;2023-02-04T08:53:26;103057.28;;;10.41;76.81
64368;BME280;50692;53.314;-6.300;2023-02-04T08:56:12;103066.16;;;10.37;77.22
64368;BME280;50692;53.314;-6.300;2023-02-04T08:59:01;103070.50;;;10.41;77.51
64368;BME280;50692;53.314;-6.300;2023-02-04T10:52:18;103088.41;;;12.20;74.20
64368;BME280;50692;53.314;-6.300;2023-02-04T10:55:12;103084.50;;;12.75;71.71
64368;BME280;50692;53.314;-6.300;2023-02-04T10:57:59;103080.31;;;13.01;69.96
64368;BME280;50692;53.314;-6.300;2023-02-04T11:00:47;103086.63;;;13.31;68.42
64368;BME280;50692;53.314;-6.300;2023-02-04T11:03:33;103095.00;;;13.15;68.11
64368;BME280;50692;53.314;-6.300;2023-02-04T11:06:22;103092.22;;;12.84;68.92
64368;BME280;50692;53.314;-6.300;2023-02-04T11:09:12;103094.03;;;12.45;70.76
64368;BME280;50692;53.314;-6.300;2023-02-04T11:11:59;103093.31;;;12.38;71.50
64368;BME280;50692;53.314;-6.300;2023-02-04T11:14:56;103093.53;;;12.28;72.56
64368;BME280;50692;53.314;-6.300;2023-02-04T11:17:42;103103.69;;;12.09;72.82
64368;BME280;50692;53.314;-6.300;2023-02-04T11:20:32;103097.03;;;11.89;73.08
64368;BME280;50692;53.314;-6.300;2023-02-04T11:34:49;103104.06;;;11.90;74.01
64368;BME280;50692;53.314;-6.300;2023-02-04T11:37:42;103098.84;;;11.87;74.20
64368;BME280;50692;53.314;-6.300;2023-02-04T11:40:30;103100.50;;;11.93;74.21
64368;BME280;50692;53.314;-6.300;2023-02-04T11:43:17;103092.38;;;12.00;73.78
64368;BME280;50692;53.314;-6.300;2023-02-04T11:46:11;103090.16;;;12.21;73.01
64368;BME280;50692;53.314;-6.300;2023-02-04T11:48:58;103086.88;;;12.50;71.83
64368;BME280;50692;53.314;-6.300;2023-02-04T11:51:45;103097.13;;;12.64;70.76
64368;BME280;50692;53.314;-6.300;2023-02-04T11:54:31;103099.72;;;12.67;70.65
64368;BME280;50692;53.314;-6.300;2023-02-04T11:57:17;103115.00;;;12.57;69.62
64368;BME280;50692;53.314;-6.300;2023-02-04T12:00:03;103105.44;;;12.50;70.16
64368;BME280;50692;53.314;-6.300;2023-02-04T12:03:01;103082.25;;;12.58;70.03
64368;BME280;50692;53.314;-6.300;2023-02-04T12:05:49;103086.91;;;12.86;69.32
64368;BME280;50692;53.314;-6.300;2023-02-04T12:08:35;103078.00;;;13.21;68.20
64368;BME280;50692;53.314;-6.300;2023-02-04T12:11:27;103078.50;;;13.37;67.50
64368;BME280;50692;53.314;-6.300;2023-02-04T12:14:16;103082.53;;;13.52;67.34
64368;BME280;50692;53.314;-6.300;2023-02-04T12:17:14;103074.50;;;13.84;66.13
64368;BME280;50692;53.314;-6.300;2023-02-04T12:20:01;103075.28;;;13.88;65.22
64368;BME280;50692;53.314;-6.300;2023-02-04T12:22:47;103068.56;;;13.76;65.51
64368;BME280;50692;53.314;-6.300;2023-02-04T12:25:33;103068.63;;;13.73;65.57
64368;BME280;50692;53.314;-6.300;2023-02-04T12:28:19;103059.25;;;13.61;65.97
64368;BME280;50692;53.314;-6.300;2023-02-04T12:31:05;103062.41;;;13.74;65.38
64368;BME280;50692;53.314;-6.300;2023-02-04T12:33:51;103066.59;;;13.83;65.57
64368;BME280;50692;53.314;-6.300;2023-02-04T12:36:38;103066.63;;;14.11;64.67
64368;BME280;50692;53.314;-6.300;2023-02-04T12:39:24;103077.06;;;14.17;63.97
64368;BME280;50692;53.314;-6.300;2023-02-04T12:42:10;103076.31;;;14.13;64.34
64368;BME280;50692;53.314;-6.300;2023-02-04T12:44:56;103078.88;;;14.16;64.14
64368;BME280;50692;53.314;-6.300;2023-02-04T12:47:42;103087.22;;;14.34;63.38
64368;BME280;50692;53.314;-6.300;2023-02-04T12:50:28;103072.53;;;14.21;63.37
64368;BME280;50692;53.314;-6.300;2023-02-04T12:53:14;103080.66;;;14.16;64.05
64368;BME280;50692;53.314;-6.300;2023-02-04T12:56:00;103088.34;;;13.97;64.24
64368;BME280;50692;53.314;-6.300;2023-02-04T12:58:46;103077.94;;;14.18;64.19
64368;BME280;50692;53.314;-6.300;2023-02-04T13:01:32;103076.06;;;14.21;63.75
64368;BME280;50692;53.314;-6.300;2023-02-04T13:04:18;103088.44;;;14.52;62.87
64368;BME280;50692;53.314;-6.300;2023-02-04T13:07:04;103095.56;;;14.79;62.21
64368;BME280;50692;53.314;-6.300;2023-02-04T13:09:52;103088.00;;;14.66;61.34
64368;BME280;50692;53.314;-6.300;2023-02-04T13:12:38;103091.13;;;14.78;61.07
64368;BME280;50692;53.314;-6.300;2023-02-04T13:15:24;103093.34;;;14.92;60.06
64368;BME280;50692;53.314;-6.300;2023-02-04T13:18:10;103091.59;;;14.91;59.63
64368;BME280;50692;53.314;-6.300;2023-02-04T13:20:55;103082.44;;;14.73;60.43
64368;BME280;50692;53.314;-6.300;2023-02-04T13:23:41;103083.88;;;14.83;60.42
64368;BME280;50692;53.314;-6.300;2023-02-04T13:26:27;103075.88;;;15.10;59.88
64368;BME280;50692;53.314;-6.300;2023-02-04T13:29:13;103075.56;;;15.19;59.72
64368;BME280;50692;53.314;-6.300;2023-02-04T13:31:59;103081.28;;;15.07;59.35
64368;BME280;50692;53.314;-6.300;2023-02-04T13:34:44;103058.16;;;14.82;60.25
64368;BME280;50692;53.314;-6.300;2023-02-04T13:37:30;103073.25;;;14.82;60.67
64368;BME280;50692;53.314;-6.300;2023-02-04T13:40:16;103069.72;;;14.81;60.50
64368;BME280;50692;53.314;-6.300;2023-02-04T13:43:02;103077.63;;;14.58;61.00
64368;BME280;50692;53.314;-6.300;2023-02-04T13:45:48;103061.53;;;14.33;61.63
64368;BME280;50692;53.314;-6.300;2023-02-04T13:48:34;103061.75;;;13.97;63.21
64368;BME280;50692;53.314;-6.300;2023-02-04T13:51:20;103058.41;;;13.89;64.23
64368;BME280;50692;53.314;-6.300;2023-02-04T13:54:05;103063.66;;;13.61;65.07
64368;BME280;50692;53.314;-6.300;2023-02-04T13:56:51;103052.44;;;13.51;66.08
64368;BME280;50692;53.314;-6.300;2023-02-04T13:59:37;103062.84;;;13.59;66.10
64368;BME280;50692;53.314;-6.300;2023-02-04T14:02:23;103068.41;;;13.50;66.56
64368;BME280;50692;53.314;-6.300;2023-02-04T14:05:09;103051.97;;;13.35;66.91
64368;BME280;50692;53.314;-6.300;2023-02-04T14:07:55;103065.97;;;13.42;66.74
64368;BME280;50692;53.314;-6.300;2023-02-04T14:10:42;103077.28;;;13.49;66.63
64368;BME280;50692;53.314;-6.300;2023-02-04T14:13:29;103070.97;;;13.54;66.78
64368;BME280;50692;53.314;-6.300;2023-02-04T14:16:17;103078.81;;;13.57;66.88
64368;BME280;50692;53.314;-6.300;2023-02-04T14:19:03;103082.38;;;13.58;66.73
64368;BME280;50692;53.314;-6.300;2023-02-04T14:21:49;103083.44;;;13.51;66.23
64368;BME280;50692;53.314;-6.300;2023-02-04T14:24:35;103092.59;;;13.72;65.96
64368;BME280;50692;53.314;-6.300;2023-02-04T14:27:24;103085.78;;;13.92;64.63
64368;BME280;50692;53.314;-6.300;2023-02-04T14:30:22;103089.31;;;13.93;64.58
64368;BME280;50692;53.314;-6.300;2023-02-04T14:33:08;103099.13;;;13.91;64.58
64368;BME280;50692;53.314;-6.300;2023-02-04T14:35:54;103100.16;;;13.85;64.92
64368;BME280;50692;53.314;-6.300;2023-02-04T14:38:40;103100.44;;;13.76;65.37
64368;BME280;50692;53.314;-6.300;2023-02-04T14:41:26;103099.25;;;13.55;66.46
64368;BME280;50692;53.314;-6.300;2023-02-04T14:44:14;103110.91;;;13.51;66.93
64368;BME280;50692;53.314;-6.300;2023-02-04T14:47:05;103122.63;;;13.42;67.70
64368;BME280;50692;53.314;-6.300;2023-02-04T14:49:50;103122.09;;;13.30;68.81
64368;BME280;50692;53.314;-6.300;2023-02-04T14:52:36;103139.41;;;13.09;70.97
64368;BME280;50692;53.314;-6.300;2023-02-04T14:55:25;103123.69;;;13.00;72.31
64368;BME280;50692;53.314;-6.300;2023-02-04T14:58:13;103131.03;;;12.90;73.43
64368;BME280;50692;53.314;-6.300;2023-02-04T15:00:58;103127.09;;;12.69;75.54
64368;BME280;50692;53.314;-6.300;2023-02-04T15:03:44;103146.63;;;12.66;76.40
64368;BME280;50692;53.314;-6.300;2023-02-04T15:06:30;103141.38;;;12.63;77.17
64368;BME280;50692;53.314;-6.300;2023-02-04T15:09:16;103163.38;;;12.68;77.32
64368;BME280;50692;53.314;-6.300;2023-02-04T15:12:02;103163.41;;;12.67;77.96
64368;BME280;50692;53.314;-6.300;2023-02-04T15:14:48;103161.16;;;12.50;78.88
64368;BME280;50692;53.314;-6.300;2023-02-04T15:17:34;103169.81;;;12.57;79.21
64368;BME280;50692;53.314;-6.300;2023-02-04T15:20:20;103182.28;;;12.55;79.51
64368;BME280;50692;53.314;-6.300;2023-02-04T15:23:07;103191.84;;;12.60;79.15
64368;BME280;50692;53.314;-6.300;2023-02-04T15:25:53;103197.25;;;12.57;78.97
64368;BME280;50692;53.314;-6.300;2023-02-04T15:28:41;103210.75;;;12.46;79.60
64368;BME280;50692;53.314;-6.300;2023-02-04T15:31:27;103223.28;;;12.40;80.91
64368;BME280;50692;53.314;-6.300;2023-02-04T15:34:13;103229.56;;;12.34;82.16
64368;BME280;50692;53.314;-6.300;2023-02-04T15:36:59;103232.53;;;12.19;85.12
64368;BME280;50692;53.314;-6.300;2023-02-04T15:39:45;103236.97;;;12.17;86.06
64368;BME280;50692;53.314;-6.300;2023-02-04T15:42:31;103239.09;;;11.98;87.45
64368;BME280;50692;53.314;-6.300;2023-02-04T15:45:17;103214.22;;;11.57;89.40
64368;BME280;50692;53.314;-6.300;2023-02-04T15:48:03;103269.56;;;11.72;91.94
64368;BME280;50692;53.314;-6.300;2023-02-04T15:50:50;103264.59;;;11.52;93.12
64368;BME280;50692;53.314;-6.300;2023-02-04T15:53:35;103283.91;;;11.61;93.68
64368;BME280;50692;53.314;-6.300;2023-02-04T15:56:22;103290.03;;;11.63;94.02
64368;BME280;50692;53.314;-6.300;2023-02-04T15:59:07;103296.38;;;11.54;94.86
64368;BME280;50692;53.314;-6.300;2023-02-04T16:01:53;103314.19;;;11.44;95.40
64368;BME280;50692;53.314;-6.300;2023-02-04T16:04:39;103341.63;;;11.39;96.50
64368;BME280;50692;53.314;-6.300;2023-02-04T16:07:26;103358.59;;;11.24;95.09
64368;BME280;50692;53.314;-6.300;2023-02-04T16:10:12;103375.47;;;11.17;93.62
64368;BME280;50692;53.314;-6.300;2023-02-04T16:12:58;103381.97;;;10.93;92.62
64368;BME280;50692;53.314;-6.300;2023-02-04T16:15:44;103387.41;;;10.79;92.11
64368;BME280;50692;53.314;-6.300;2023-02-04T16:18:30;103419.19;;;10.76;92.50
64368;BME280;50692;53.314;-6.300;2023-02-04T16:21:15;103441.31;;;10.69;92.41
64368;BME280;50692;53.314;-6.300;2023-02-04T16:24:01;103452.03;;;10.52;89.37